Time,TemperatureF,DewpointF,PressureIn,WindDirection,WindDirectionDegrees,WindSpeedMPH,WindSpeedGustMPH,Humidity,HourlyPrecipIn,Conditions,Clouds,dailyrainin,SoftwareType,DateUTC
2013-01-26 00:04:00,31.6,23.0,30.26,SSW,196,0.0,1.0,70,0.00,,,0.00,meteohub,2013-01-26 06:04:00,
2013-01-26 00:09:00,31.5,22.8,30.26,SSW,196,0.0,1.0,70,0.00,,,0.00,meteohub,2013-01-26 06:09:00,
2013-01-26 00:14:00,31.5,23.2,30.26,SSW,196,0.0,1.0,71,0.00,,,0.00,meteohub,2013-01-26 06:14:00,
2013-01-26 00:19:00,31.3,23.0,30.26,SSW,196,0.0,1.0,71,0.00,,,0.00,meteohub,2013-01-26 06:19:00,
2013-01-26 00:24:00,31.3,23.4,30.26,SSW,196,0.0,1.0,72,0.00,,,0.00,meteohub,2013-01-26 06:24:00,
2013-01-26 00:29:00,31.3,23.4,30.25,SSW,196,0.0,1.0,72,0.00,,,0.00,meteohub,2013-01-26 06:29:00,
2013-01-26 00:34:00,31.3,23.4,30.25,SSW,196,0.0,1.0,72,0.00,,,0.00,meteohub,2013-01-26 06:34:00,
2013-01-26 00:39:00,31.3,23.7,30.25,SSW,196,0.0,1.0,73,0.00,,,0.00,meteohub,2013-01-26 06:39:00,
2013-01-26 00:44:00,31.1,23.5,30.25,SSW,196,0.0,1.0,73,0.00,,,0.00,meteohub,2013-01-26 06:44:00,
2013-01-26 00:49:00,30.9,23.4,30.25,SSW,196,0.0,0.0,73,0.00,,,0.00,meteohub,2013-01-26 06:49:00,
2013-01-26 00:54:00,30.9,23.4,30.25,SSW,196,0.0,0.0,73,0.00,,,0.00,meteohub,2013-01-26 06:54:00,
2013-01-26 00:59:00,30.7,23.2,30.24,SSW,196,0.0,0.0,73,0.00,,,0.00,meteohub,2013-01-26 06:59:00,
2013-01-26 01:04:00,30.7,23.4,30.25,SSW,196,0.0,0.0,74,0.00,,,0.00,meteohub,2013-01-26 07:04:00,
2013-01-26 01:09:00,30.7,23.4,30.25,SSW,196,1.0,0.0,74,0.00,,,0.00,meteohub,2013-01-26 07:09:00,
2013-01-26 01:14:00,30.6,23.2,30.24,SSW,196,0.0,0.0,74,0.00,,,0.00,meteohub,2013-01-26 07:14:00,
2013-01-26 01:19:00,30.4,23.2,30.24,SSW,196,0.0,1.0,74,0.00,,,0.00,meteohub,2013-01-26 07:19:00,
2013-01-26 01:24:00,30.4,23.2,30.24,SSW,196,0.0,1.0,74,0.00,,,0.00,meteohub,2013-01-26 07:24:00,
2013-01-26 01:29:00,30.4,23.4,30.24,SSW,196,0.0,1.0,75,0.00,,,0.00,meteohub,2013-01-26 07:29:00,
2013-01-26 01:34:00,30.6,23.5,30.25,SSW,196,0.0,1.0,75,0.00,,,0.00,meteohub,2013-01-26 07:34:00,
2013-01-26 01:39:00,30.6,23.2,30.25,SSW,196,0.0,1.0,74,0.00,,,0.00,meteohub,2013-01-26 07:39:00,
2013-01-26 01:44:00,30.6,23.2,30.25,SSW,196,0.0,1.0,74,0.00,,,0.00,meteohub,2013-01-26 07:44:00,
2013-01-26 01:49:00,30.6,23.5,30.25,SSW,196,0.0,1.0,75,0.00,,,0.00,meteohub,2013-01-26 07:49:00,
2013-01-26 01:54:00,30.4,23.4,30.25,SSW,196,1.0,1.0,75,0.00,,,0.00,meteohub,2013-01-26 07:54:00,
2013-01-26 01:59:00,30.2,23.2,30.25,SSW,196,0.0,1.0,75,0.00,,,0.00,meteohub,2013-01-26 07:59:00,
2013-01-26 02:04:00,30.4,23.4,30.25,WNW,292,2.0,2.0,75,0.00,,,0.00,meteohub,2013-01-26 08:04:00,
2013-01-26 02:09:00,30.4,23.4,30.25,WNW,294,1.0,1.0,75,0.00,,,0.00,meteohub,2013-01-26 08:09:00,
2013-01-26 02:14:00,30.2,23.2,30.25,WNW,294,0.0,1.0,75,0.00,,,0.00,meteohub,2013-01-26 08:14:00,
2013-01-26 02:19:00,30.2,23.0,30.25,WNW,294,0.0,2.0,74,0.00,,,0.00,meteohub,2013-01-26 08:19:00,
2013-01-26 02:24:00,30.2,23.0,30.25,WNW,294,0.0,2.0,74,0.00,,,0.00,meteohub,2013-01-26 08:24:00,
2013-01-26 02:29:00,30.4,23.2,30.25,WNW,294,1.0,2.0,74,0.00,,,0.00,meteohub,2013-01-26 08:29:00,
2013-01-26 02:34:00,30.4,22.8,30.26,WNW,298,0.0,2.0,73,0.00,,,0.00,meteohub,2013-01-26 08:34:00,
2013-01-26 02:39:00,30.6,23.0,30.25,WNW,298,1.0,2.0,73,0.00,,,0.00,meteohub,2013-01-26 08:39:00,
2013-01-26 02:44:00,30.7,22.8,30.26,WNW,298,0.0,2.0,72,0.00,,,0.00,meteohub,2013-01-26 08:44:00,
2013-01-26 02:49:00,30.7,22.8,30.25,WNW,298,0.0,2.0,72,0.00,,,0.00,meteohub,2013-01-26 08:49:00,
2013-01-26 02:54:00,30.7,22.8,30.26,NNW,346,0.0,2.0,72,0.00,,,0.00,meteohub,2013-01-26 08:54:00,
2013-01-26 02:59:00,30.7,22.8,30.26,NNW,329,0.0,2.0,72,0.00,,,0.00,meteohub,2013-01-26 08:59:00,
2013-01-26 03:04:00,30.6,22.6,30.25,NNW,329,0.0,2.0,72,0.00,,,0.00,meteohub,2013-01-26 09:04:00,
2013-01-26 03:09:00,30.4,22.5,30.25,NNW,329,0.0,2.0,72,0.00,,,0.00,meteohub,2013-01-26 09:09:00,
2013-01-26 03:14:00,30.4,22.5,30.25,NNW,329,0.0,1.0,72,0.00,,,0.00,meteohub,2013-01-26 09:14:00,
2013-01-26 03:19:00,30.6,22.6,30.25,NNW,329,0.0,1.0,72,0.00,,,0.00,meteohub,2013-01-26 09:19:00,
2013-01-26 03:24:00,30.6,22.6,30.25,NNW,329,0.0,1.0,72,0.00,,,0.00,meteohub,2013-01-26 09:24:00,
2013-01-26 03:29:00,30.6,22.6,30.25,NNW,329,0.0,1.0,72,0.00,,,0.00,meteohub,2013-01-26 09:29:00,
2013-01-26 03:34:00,30.6,22.3,30.25,NNW,329,0.0,0.0,71,0.00,,,0.00,meteohub,2013-01-26 09:34:00,
2013-01-26 03:39:00,30.6,22.6,30.24,NNW,329,0.0,0.0,72,0.00,,,0.00,meteohub,2013-01-26 09:39:00,
2013-01-26 03:44:00,30.6,22.6,30.25,NNW,329,0.0,0.0,72,0.00,,,0.00,meteohub,2013-01-26 09:44:00,
2013-01-26 03:49:00,30.6,23.0,30.25,NW,321,1.0,0.0,73,0.00,,,0.00,meteohub,2013-01-26 09:49:00,
2013-01-26 03:54:00,30.7,23.2,30.25,NW,321,0.0,2.0,73,0.00,,,0.00,meteohub,2013-01-26 09:54:00,
2013-01-26 03:59:00,30.7,23.2,30.25,NNW,328,0.0,2.0,73,0.00,,,0.00,meteohub,2013-01-26 09:59:00,
2013-01-26 04:04:00,30.6,23.2,30.25,NNW,328,0.0,2.0,74,0.00,,,0.00,meteohub,2013-01-26 10:04:00,
2013-01-26 04:09:00,30.2,23.0,30.25,NNW,328,0.0,2.0,74,0.00,,,0.00,meteohub,2013-01-26 10:09:00,
2013-01-26 04:14:00,29.8,22.8,30.25,NNW,328,0.0,1.0,75,0.00,,,0.00,meteohub,2013-01-26 10:14:00,
2013-01-26 04:19:00,29.8,23.2,30.25,NNW,328,0.0,1.0,76,0.00,,,0.00,meteohub,2013-01-26 10:19:00,
2013-01-26 04:24:00,29.7,23.0,30.25,NNW,328,0.0,1.0,76,0.00,,,0.00,meteohub,2013-01-26 10:24:00,
2013-01-26 04:29:00,29.5,22.8,30.24,NNW,328,0.0,1.0,76,0.00,,,0.00,meteohub,2013-01-26 10:29:00,
2013-01-26 04:34:00,29.5,22.8,30.24,NNW,328,0.0,0.0,76,0.00,,,0.00,meteohub,2013-01-26 10:34:00,
2013-01-26 04:39:00,29.1,22.5,30.24,NNW,328,0.0,0.0,76,0.00,,,0.00,meteohub,2013-01-26 10:39:00,
2013-01-26 04:44:00,29.1,22.5,30.24,NNW,328,0.0,0.0,76,0.00,,,0.00,meteohub,2013-01-26 10:44:00,
2013-01-26 04:49:00,29.1,22.8,30.24,NNW,328,0.0,0.0,77,0.00,,,0.00,meteohub,2013-01-26 10:49:00,
2013-01-26 04:54:00,29.1,22.8,30.25,NNW,328,0.0,0.0,77,0.00,,,0.00,meteohub,2013-01-26 10:54:00,
2013-01-26 04:59:00,29.1,23.2,30.25,WNW,299,0.0,1.0,78,0.00,,,0.00,meteohub,2013-01-26 10:59:00,
2013-01-26 05:04:00,29.1,23.2,30.25,WNW,294,0.0,1.0,78,0.00,,,0.00,meteohub,2013-01-26 11:04:00,
2013-01-26 05:09:00,29.1,23.2,30.25,WNW,294,0.0,1.0,78,0.00,,,0.00,meteohub,2013-01-26 11:09:00,
2013-01-26 05:14:00,29.1,22.8,30.25,SSW,201,0.0,1.0,77,0.00,,,0.00,meteohub,2013-01-26 11:14:00,
2013-01-26 05:19:00,29.1,22.8,30.26,SSW,192,0.0,1.0,77,0.00,,,0.00,meteohub,2013-01-26 11:19:00,
2013-01-26 05:24:00,29.1,22.8,30.26,SSW,192,0.0,1.0,77,0.00,,,0.00,meteohub,2013-01-26 11:24:00,
2013-01-26 05:29:00,29.1,22.8,30.25,SSW,192,0.0,2.0,77,0.00,,,0.00,meteohub,2013-01-26 11:29:00,
2013-01-26 05:34:00,29.5,23.2,30.25,SSW,192,0.0,2.0,77,0.00,,,0.00,meteohub,2013-01-26 11:34:00,
2013-01-26 05:39:00,29.5,22.8,30.25,SSW,192,0.0,2.0,76,0.00,,,0.00,meteohub,2013-01-26 11:39:00,
2013-01-26 05:44:00,29.7,23.0,30.25,SSW,192,0.0,2.0,76,0.00,,,0.00,meteohub,2013-01-26 11:44:00,
2013-01-26 05:49:00,29.7,22.6,30.26,SSW,192,0.0,2.0,75,0.00,,,0.00,meteohub,2013-01-26 11:49:00,
2013-01-26 05:54:00,29.7,22.6,30.26,SSW,192,0.0,2.0,75,0.00,,,0.00,meteohub,2013-01-26 11:54:00,
2013-01-26 05:59:00,29.7,22.6,30.26,SSW,192,0.0,1.0,75,0.00,,,0.00,meteohub,2013-01-26 11:59:00,
2013-01-26 06:04:00,29.7,22.5,30.26,SSW,192,0.0,1.0,74,0.00,,,0.00,meteohub,2013-01-26 12:04:00,
2013-01-26 06:09:00,29.8,22.6,30.26,SSW,192,0.0,1.0,74,0.00,,,0.00,meteohub,2013-01-26 12:09:00,
2013-01-26 06:14:00,29.8,22.6,30.26,SSW,192,0.0,1.0,74,0.00,,,0.00,meteohub,2013-01-26 12:14:00,
2013-01-26 06:19:00,29.8,22.6,30.26,SSW,192,0.0,1.0,74,0.00,,,0.00,meteohub,2013-01-26 12:19:00,
2013-01-26 06:24:00,30.0,22.8,30.26,SSW,192,0.0,1.0,74,0.00,,,0.00,meteohub,2013-01-26 12:24:00,
2013-01-26 06:29:00,30.2,23.0,30.26,South,187,0.0,1.0,74,0.00,,,0.00,meteohub,2013-01-26 12:29:00,
2013-01-26 06:34:00,30.4,22.8,30.26,South,187,0.0,1.0,73,0.00,,,0.00,meteohub,2013-01-26 12:34:00,
2013-01-26 06:39:00,30.6,23.0,30.26,South,187,0.0,1.0,73,0.00,,,0.00,meteohub,2013-01-26 12:39:00,
2013-01-26 06:44:00,30.6,23.0,30.27,South,187,0.0,2.0,73,0.00,,,0.00,meteohub,2013-01-26 12:44:00,
2013-01-26 06:49:00,30.6,23.0,30.27,South,187,0.0,2.0,73,0.00,,,0.00,meteohub,2013-01-26 12:49:00,
2013-01-26 06:54:00,30.6,23.0,30.27,South,187,0.0,2.0,73,0.00,,,0.00,meteohub,2013-01-26 12:54:00,
2013-01-26 06:59:00,30.6,23.0,30.27,South,187,0.0,2.0,73,0.00,,,0.00,meteohub,2013-01-26 12:59:00,
2013-01-26 07:04:00,30.6,23.0,30.27,South,187,1.0,2.0,73,0.00,,,0.00,meteohub,2013-01-26 13:04:00,
2013-01-26 07:09:00,30.6,23.0,30.27,South,187,0.0,2.0,73,0.00,,,0.00,meteohub,2013-01-26 13:09:00,
2013-01-26 07:14:00,30.6,23.0,30.27,South,187,0.0,2.0,73,0.00,,,0.00,meteohub,2013-01-26 13:14:00,
2013-01-26 07:19:00,30.6,23.0,30.27,South,180,0.0,2.0,73,0.00,,,0.00,meteohub,2013-01-26 13:19:00,
2013-01-26 07:24:00,30.6,23.0,30.27,South,180,1.0,2.0,73,0.00,,,0.00,meteohub,2013-01-26 13:24:00,
2013-01-26 07:29:00,30.7,23.2,30.27,South,174,1.0,2.0,73,0.00,,,0.00,meteohub,2013-01-26 13:29:00,
2013-01-26 07:34:00,30.7,23.4,30.27,South,173,0.0,2.0,74,0.00,,,0.00,meteohub,2013-01-26 13:34:00,
2013-01-26 07:39:00,30.7,23.4,30.27,SE,125,0.0,2.0,74,0.00,,,0.00,meteohub,2013-01-26 13:39:00,
2013-01-26 07:44:00,30.7,23.4,30.27,SE,125,0.0,2.0,74,0.00,,,0.00,meteohub,2013-01-26 13:44:00,
2013-01-26 07:49:00,30.7,23.4,30.27,SE,125,1.0,2.0,74,0.00,,,0.00,meteohub,2013-01-26 13:49:00,
2013-01-26 07:54:00,30.7,23.4,30.27,SE,125,0.0,2.0,74,0.00,,,0.00,meteohub,2013-01-26 13:54:00,
2013-01-26 07:59:00,30.9,23.5,30.27,SE,142,0.0,2.0,74,0.00,,,0.00,meteohub,2013-01-26 13:59:00,
2013-01-26 08:04:00,30.9,23.5,30.27,SE,136,0.0,2.0,74,0.00,,,0.00,meteohub,2013-01-26 14:04:00,
2013-01-26 08:09:00,31.1,24.1,30.27,SE,138,0.0,2.0,75,0.00,,,0.00,meteohub,2013-01-26 14:09:00,
2013-01-26 08:14:00,31.3,24.3,30.27,SE,138,1.0,2.0,75,0.00,,,0.00,meteohub,2013-01-26 14:14:00,
2013-01-26 08:19:00,31.5,24.4,30.27,SE,139,0.0,2.0,75,0.00,,,0.00,meteohub,2013-01-26 14:19:00,
2013-01-26 08:24:00,31.5,24.1,30.27,SE,138,1.0,2.0,74,0.00,,,0.00,meteohub,2013-01-26 14:24:00,
2013-01-26 08:29:00,31.6,24.6,30.27,SE,138,0.0,2.0,75,0.00,,,0.00,meteohub,2013-01-26 14:29:00,
2013-01-26 08:34:00,31.8,24.4,30.27,SE,138,0.0,2.0,74,0.00,,,0.00,meteohub,2013-01-26 14:34:00,
2013-01-26 08:39:00,32.2,24.8,30.27,SE,138,0.0,2.0,74,0.00,,,0.00,meteohub,2013-01-26 14:39:00,
2013-01-26 08:44:00,32.4,25.0,30.27,SE,138,0.0,2.0,74,0.00,,,0.00,meteohub,2013-01-26 14:44:00,
2013-01-26 08:49:00,32.7,25.3,30.27,SE,138,0.0,2.0,74,0.00,,,0.00,meteohub,2013-01-26 14:49:00,
2013-01-26 08:54:00,33.1,25.7,30.27,SE,135,0.0,2.0,74,0.00,,,0.00,meteohub,2013-01-26 14:54:00,
2013-01-26 08:59:00,33.4,25.7,30.27,SE,126,0.0,2.0,73,0.00,,,0.00,meteohub,2013-01-26 14:59:00,
2013-01-26 09:04:00,34.0,26.2,30.27,ESE,113,0.0,2.0,73,0.00,,,0.00,meteohub,2013-01-26 15:04:00,
2013-01-26 09:09:00,34.5,26.8,30.27,ESE,119,2.0,2.0,73,0.00,,,0.00,meteohub,2013-01-26 15:09:00,
2013-01-26 09:14:00,35.1,27.0,30.27,ESE,119,3.0,3.0,72,0.00,,,0.00,meteohub,2013-01-26 15:14:00,
2013-01-26 09:19:00,35.4,27.3,30.27,SE,124,3.0,3.0,72,0.00,,,0.00,meteohub,2013-01-26 15:19:00,
2013-01-26 09:24:00,36.0,27.5,30.27,East,89,2.0,3.0,71,0.00,,,0.00,meteohub,2013-01-26 15:24:00,
2013-01-26 09:29:00,36.3,27.9,30.27,East,100,2.0,3.0,71,0.00,,,0.00,meteohub,2013-01-26 15:29:00,
2013-01-26 09:34:00,37.0,28.2,30.27,ESE,111,2.0,3.0,70,0.00,,,0.00,meteohub,2013-01-26 15:34:00,
2013-01-26 09:39:00,37.9,28.0,30.28,East,89,2.0,3.0,67,0.00,,,0.00,meteohub,2013-01-26 15:39:00,
2013-01-26 09:44:00,38.7,27.9,30.27,East,81,5.0,5.0,65,0.00,,,0.00,meteohub,2013-01-26 15:44:00,
2013-01-26 09:49:00,39.2,28.0,30.28,ESE,115,3.0,3.0,64,0.00,,,0.00,meteohub,2013-01-26 15:49:00,
2013-01-26 09:54:00,39.7,28.2,30.28,ESE,118,5.0,6.0,63,0.00,,,0.00,meteohub,2013-01-26 15:54:00,
2013-01-26 09:59:00,40.3,28.2,30.28,ESE,119,2.0,6.0,62,0.00,,,0.00,meteohub,2013-01-26 15:59:00,
2013-01-26 10:04:00,41.2,30.0,30.28,ESE,115,4.0,6.0,64,0.00,,,0.00,meteohub,2013-01-26 16:04:00,
2013-01-26 10:09:00,41.7,28.4,30.28,ENE,67,1.0,6.0,59,0.00,,,0.00,meteohub,2013-01-26 16:09:00,
2013-01-26 10:14:00,42.4,28.2,30.27,ESE,107,5.0,6.0,57,0.00,,,0.00,meteohub,2013-01-26 16:14:00,
2013-01-26 10:19:00,42.8,28.2,30.28,ESE,121,4.0,6.0,56,0.00,,,0.00,meteohub,2013-01-26 16:19:00,
2013-01-26 10:24:00,43.3,28.8,30.28,East,99,4.0,6.0,56,0.00,,,0.00,meteohub,2013-01-26 16:24:00,
2013-01-26 10:29:00,44.1,28.0,30.28,SSE,161,5.0,6.0,53,0.00,,,0.00,meteohub,2013-01-26 16:29:00,
2013-01-26 10:34:00,44.4,28.4,30.28,SE,130,2.0,6.0,53,0.00,,,0.00,meteohub,2013-01-26 16:34:00,
2013-01-26 10:39:00,45.1,28.0,30.28,SE,138,7.0,7.0,51,0.00,,,0.00,meteohub,2013-01-26 16:39:00,
2013-01-26 10:44:00,45.7,28.0,30.27,SE,134,3.0,6.0,50,0.00,,,0.00,meteohub,2013-01-26 16:44:00,
2013-01-26 10:49:00,46.0,27.9,30.27,SSE,148,5.0,6.0,49,0.00,,,0.00,meteohub,2013-01-26 16:49:00,
2013-01-26 10:54:00,46.2,27.1,30.27,SSE,155,6.0,12.0,47,0.00,,,0.00,meteohub,2013-01-26 16:54:00,
2013-01-26 10:59:00,46.4,27.9,30.27,SW,219,6.0,12.0,48,0.00,,,0.00,meteohub,2013-01-26 16:59:00,
2013-01-26 11:04:00,46.8,27.1,30.27,SE,143,5.0,12.0,46,0.00,,,0.00,meteohub,2013-01-26 17:04:00,
2013-01-26 11:09:00,46.8,27.1,30.27,SSE,161,3.0,12.0,46,0.00,,,0.00,meteohub,2013-01-26 17:09:00,
2013-01-26 11:14:00,47.1,27.3,30.27,South,179,3.0,12.0,46,0.00,,,0.00,meteohub,2013-01-26 17:14:00,
2013-01-26 11:19:00,47.5,27.1,30.27,SSE,165,5.0,11.0,45,0.00,,,0.00,meteohub,2013-01-26 17:19:00,
2013-01-26 11:24:00,47.7,27.3,30.26,East,91,1.0,11.0,45,0.00,,,0.00,meteohub,2013-01-26 17:24:00,
2013-01-26 11:29:00,48.0,27.1,30.26,SSE,155,4.0,11.0,44,0.00,,,0.00,meteohub,2013-01-26 17:29:00,
2013-01-26 11:34:00,48.4,27.5,30.25,SE,138,5.0,11.0,44,0.00,,,0.00,meteohub,2013-01-26 17:34:00,
2013-01-26 11:39:00,48.9,27.3,30.26,SSE,160,6.0,11.0,43,0.00,,,0.00,meteohub,2013-01-26 17:39:00,
2013-01-26 11:44:00,49.5,27.9,30.25,SE,139,11.0,12.0,43,0.00,,,0.00,meteohub,2013-01-26 17:44:00,
2013-01-26 11:49:00,49.5,27.3,30.25,SSE,166,7.0,12.0,42,0.00,,,0.00,meteohub,2013-01-26 17:49:00,
2013-01-26 11:54:00,49.8,27.7,30.25,SE,139,4.0,12.0,42,0.00,,,0.00,meteohub,2013-01-26 17:54:00,
2013-01-26 11:59:00,50.2,27.3,30.24,SSW,201,6.0,12.0,41,0.00,,,0.00,meteohub,2013-01-26 17:59:00,
2013-01-26 12:04:00,50.4,27.5,30.24,SSE,163,9.0,13.0,41,0.00,,,0.00,meteohub,2013-01-26 18:04:00,
2013-01-26 12:09:00,50.5,27.7,30.23,SE,146,4.0,13.0,41,0.00,,,0.00,meteohub,2013-01-26 18:09:00,
2013-01-26 12:14:00,50.9,27.5,30.23,SE,140,10.0,13.0,40,0.00,,,0.00,meteohub,2013-01-26 18:14:00,
2013-01-26 12:19:00,51.3,27.1,30.23,South,171,9.0,13.0,39,0.00,,,0.00,meteohub,2013-01-26 18:19:00,
2013-01-26 12:24:00,51.4,27.3,30.23,South,181,3.0,13.0,39,0.00,,,0.00,meteohub,2013-01-26 18:24:00,
2013-01-26 12:29:00,52.0,27.1,30.22,SE,137,11.0,13.0,38,0.00,,,0.00,meteohub,2013-01-26 18:29:00,
2013-01-26 12:34:00,52.2,26.6,30.22,SE,139,9.0,15.0,37,0.00,,,0.00,meteohub,2013-01-26 18:34:00,
2013-01-26 12:39:00,52.3,26.8,30.21,ESE,117,6.0,15.0,37,0.00,,,0.00,meteohub,2013-01-26 18:39:00,
2013-01-26 12:44:00,52.5,27.0,30.21,SE,140,9.0,15.0,37,0.00,,,0.00,meteohub,2013-01-26 18:44:00,
2013-01-26 12:49:00,52.9,26.6,30.21,SSE,151,9.0,15.0,36,0.00,,,0.00,meteohub,2013-01-26 18:49:00,
2013-01-26 12:54:00,52.9,26.6,30.20,East,96,7.0,15.0,36,0.00,,,0.00,meteohub,2013-01-26 18:54:00,
2013-01-26 12:59:00,52.9,26.6,30.20,SSE,150,10.0,17.0,36,0.00,,,0.00,meteohub,2013-01-26 18:59:00,
2013-01-26 13:04:00,52.9,27.3,30.19,SSE,152,6.0,17.0,37,0.00,,,0.00,meteohub,2013-01-26 19:04:00,
2013-01-26 13:09:00,53.1,27.5,30.19,SE,136,9.0,17.0,37,0.00,,,0.00,meteohub,2013-01-26 19:09:00,
2013-01-26 13:14:00,53.4,27.1,30.19,South,172,4.0,17.0,36,0.00,,,0.00,meteohub,2013-01-26 19:14:00,
2013-01-26 13:19:00,53.8,27.5,30.19,SE,145,5.0,17.0,36,0.00,,,0.00,meteohub,2013-01-26 19:19:00,
2013-01-26 13:24:00,53.8,27.5,30.18,SSE,155,10.0,16.0,36,0.00,,,0.00,meteohub,2013-01-26 19:24:00,
2013-01-26 13:29:00,54.0,27.0,30.18,SE,138,9.0,16.0,35,0.00,,,0.00,meteohub,2013-01-26 19:29:00,
2013-01-26 13:34:00,54.1,27.1,30.18,SSE,162,7.0,16.0,35,0.00,,,0.00,meteohub,2013-01-26 19:34:00,
2013-01-26 13:39:00,54.3,27.3,30.17,South,169,3.0,16.0,35,0.00,,,0.00,meteohub,2013-01-26 19:39:00,
2013-01-26 13:44:00,54.5,27.3,30.17,SE,138,12.0,16.0,35,0.00,,,0.00,meteohub,2013-01-26 19:44:00,
2013-01-26 13:49:00,54.9,27.7,30.16,ESE,111,6.0,17.0,35,0.00,,,0.00,meteohub,2013-01-26 19:49:00,
2013-01-26 13:54:00,55.0,27.9,30.16,SSE,165,9.0,17.0,35,0.00,,,0.00,meteohub,2013-01-26 19:54:00,
2013-01-26 13:59:00,55.2,27.3,30.16,SSE,157,10.0,17.0,34,0.00,,,0.00,meteohub,2013-01-26 19:59:00,
2013-01-26 14:04:00,55.8,27.9,30.15,SSE,156,4.0,17.0,34,0.00,,,0.00,meteohub,2013-01-26 20:04:00,
2013-01-26 14:09:00,55.9,28.0,30.15,SSE,149,4.0,12.0,34,0.00,,,0.00,meteohub,2013-01-26 20:09:00,
2013-01-26 14:14:00,55.9,28.0,30.15,SE,142,2.0,12.0,34,0.00,,,0.00,meteohub,2013-01-26 20:14:00,
2013-01-26 14:20:00,56.5,27.7,30.15,SSE,167,6.0,12.0,33,0.00,,,0.00,meteohub,2013-01-26 20:20:00,
2013-01-26 14:25:00,56.5,27.7,30.14,ESE,116,11.0,12.0,33,0.00,,,0.00,meteohub,2013-01-26 20:25:00,
2013-01-26 14:30:00,56.3,27.5,30.14,SE,138,7.0,12.0,33,0.00,,,0.00,meteohub,2013-01-26 20:30:00,
2013-01-26 14:35:00,56.1,27.3,30.14,SSE,157,9.0,12.0,33,0.00,,,0.00,meteohub,2013-01-26 20:35:00,
2013-01-26 14:40:00,56.1,27.3,30.14,SSE,150,5.0,12.0,33,0.00,,,0.00,meteohub,2013-01-26 20:40:00,
2013-01-26 14:45:00,56.5,27.7,30.14,SE,144,7.0,12.0,33,0.00,,,0.00,meteohub,2013-01-26 20:45:00,
2013-01-26 14:50:00,56.7,27.9,30.14,SE,136,5.0,14.0,33,0.00,,,0.00,meteohub,2013-01-26 20:50:00,
2013-01-26 14:55:00,56.7,27.9,30.14,South,188,5.0,14.0,33,0.00,,,0.00,meteohub,2013-01-26 20:55:00,
2013-01-26 15:00:00,56.5,27.0,30.14,SSE,167,6.0,14.0,32,0.00,,,0.00,meteohub,2013-01-26 21:00:00,
2013-01-26 15:05:00,56.5,27.0,30.14,SSE,157,11.0,14.0,32,0.00,,,0.00,meteohub,2013-01-26 21:05:00,
2013-01-26 15:10:00,56.5,27.0,30.14,SE,128,7.0,13.0,32,0.00,,,0.00,meteohub,2013-01-26 21:10:00,
2013-01-26 15:15:00,56.7,27.1,30.14,SE,138,10.0,13.0,32,0.00,,,0.00,meteohub,2013-01-26 21:15:00,
2013-01-26 15:20:00,56.7,27.1,30.14,SE,138,6.0,13.0,32,0.00,,,0.00,meteohub,2013-01-26 21:20:00,
2013-01-26 15:25:00,56.8,27.3,30.14,ESE,111,4.0,13.0,32,0.00,,,0.00,meteohub,2013-01-26 21:25:00,
2013-01-26 15:30:00,57.0,27.5,30.14,ESE,113,4.0,13.0,32,0.00,,,0.00,meteohub,2013-01-26 21:30:00,
2013-01-26 15:35:00,57.0,27.5,30.14,SE,140,8.0,13.0,32,0.00,,,0.00,meteohub,2013-01-26 21:35:00,
2013-01-26 15:40:00,56.8,27.3,30.14,SSE,150,4.0,13.0,32,0.00,,,0.00,meteohub,2013-01-26 21:40:00,
2013-01-26 15:45:00,57.0,28.2,30.13,South,173,5.0,12.0,33,0.00,,,0.00,meteohub,2013-01-26 21:45:00,
2013-01-26 15:50:00,57.0,28.2,30.13,SSE,159,4.0,12.0,33,0.00,,,0.00,meteohub,2013-01-26 21:50:00,
2013-01-26 15:55:00,57.0,27.5,30.12,SSE,162,7.0,12.0,32,0.00,,,0.00,meteohub,2013-01-26 21:55:00,
2013-01-26 16:00:00,57.0,27.5,30.12,SE,135,12.0,12.0,32,0.00,,,0.00,meteohub,2013-01-26 22:00:00,
2013-01-26 16:05:00,56.8,28.0,30.12,SSE,157,5.0,12.0,33,0.00,,,0.00,meteohub,2013-01-26 22:05:00,
2013-01-26 16:10:00,57.0,27.5,30.12,ESE,109,4.0,13.0,32,0.00,,,0.00,meteohub,2013-01-26 22:10:00,
2013-01-26 16:15:00,57.0,28.2,30.12,SE,128,5.0,13.0,33,0.00,,,0.00,meteohub,2013-01-26 22:15:00,
2013-01-26 16:20:00,56.8,28.0,30.12,ESE,123,5.0,13.0,33,0.00,,,0.00,meteohub,2013-01-26 22:20:00,
2013-01-26 16:25:00,56.7,27.9,30.12,ESE,107,2.0,13.0,33,0.00,,,0.00,meteohub,2013-01-26 22:25:00,
2013-01-26 16:30:00,56.5,28.4,30.12,SE,128,4.0,13.0,34,0.00,,,0.00,meteohub,2013-01-26 22:30:00,
2013-01-26 16:35:00,56.3,28.2,30.12,East,85,3.0,11.0,34,0.00,,,0.00,meteohub,2013-01-26 22:35:00,
2013-01-26 16:40:00,56.1,28.0,30.11,SE,126,5.0,11.0,34,0.00,,,0.00,meteohub,2013-01-26 22:40:00,
2013-01-26 16:45:00,56.1,28.0,30.11,SE,130,7.0,11.0,34,0.00,,,0.00,meteohub,2013-01-26 22:45:00,
2013-01-26 16:50:00,56.1,28.0,30.11,ESE,121,3.0,11.0,34,0.00,,,0.00,meteohub,2013-01-26 22:50:00,
2013-01-26 16:55:00,55.9,28.0,30.11,SSE,164,3.0,12.0,34,0.00,,,0.00,meteohub,2013-01-26 22:55:00,
2013-01-26 17:00:00,55.8,27.9,30.11,ESE,121,4.0,12.0,34,0.00,,,0.00,meteohub,2013-01-26 23:00:00,
2013-01-26 17:05:00,55.6,27.7,30.11,ESE,120,4.0,12.0,34,0.00,,,0.00,meteohub,2013-01-26 23:05:00,
2013-01-26 17:10:00,55.2,28.0,30.11,SE,130,5.0,12.0,35,0.00,,,0.00,meteohub,2013-01-26 23:10:00,
2013-01-26 17:15:00,55.0,27.9,30.11,SSE,152,6.0,10.0,35,0.00,,,0.00,meteohub,2013-01-26 23:15:00,
2013-01-26 17:20:00,54.7,27.5,30.11,SE,129,5.0,10.0,35,0.00,,,0.00,meteohub,2013-01-26 23:20:00,
2013-01-26 17:25:00,54.3,27.9,30.10,SE,128,3.0,10.0,36,0.00,,,0.00,meteohub,2013-01-26 23:25:00,
2013-01-26 17:30:00,54.1,27.7,30.11,SE,127,3.0,10.0,36,0.00,,,0.00,meteohub,2013-01-26 23:30:00,
2013-01-26 17:35:00,53.8,28.0,30.10,ESE,122,4.0,10.0,37,0.00,,,0.00,meteohub,2013-01-26 23:35:00,
2013-01-26 17:40:00,53.4,27.9,30.10,ESE,121,2.0,10.0,37,0.00,,,0.00,meteohub,2013-01-26 23:40:00,
2013-01-26 17:45:00,53.1,28.0,30.10,ESE,120,4.0,10.0,38,0.00,,,0.00,meteohub,2013-01-26 23:45:00,
2013-01-26 17:50:00,52.9,28.0,30.10,ESE,123,3.0,10.0,38,0.00,,,0.00,meteohub,2013-01-26 23:50:00,
2013-01-26 17:55:00,52.5,27.7,30.10,East,101,3.0,6.0,38,0.00,,,0.00,meteohub,2013-01-26 23:55:00,
2013-01-26 18:00:00,52.3,27.5,30.10,ESE,123,2.0,6.0,38,0.00,,,0.00,meteohub,2013-01-27 00:00:00,
2013-01-26 18:05:00,52.0,27.9,30.10,ESE,109,3.0,6.0,39,0.00,,,0.00,meteohub,2013-01-27 00:05:00,
2013-01-26 18:10:00,51.8,27.7,30.10,SE,144,1.0,6.0,39,0.00,,,0.00,meteohub,2013-01-27 00:10:00,
2013-01-26 18:15:00,51.6,27.5,30.10,ESE,123,2.0,6.0,39,0.00,,,0.00,meteohub,2013-01-27 00:15:00,
2013-01-26 18:20:00,51.4,27.9,30.10,SE,130,2.0,5.0,40,0.00,,,0.00,meteohub,2013-01-27 00:20:00,
2013-01-26 18:25:00,51.3,27.7,30.10,ESE,121,4.0,5.0,40,0.00,,,0.00,meteohub,2013-01-27 00:25:00,
2013-01-26 18:30:00,50.9,27.5,30.10,SE,135,2.0,5.0,40,0.00,,,0.00,meteohub,2013-01-27 00:30:00,
2013-01-26 18:35:00,50.7,27.3,30.10,ESE,121,3.0,5.0,40,0.00,,,0.00,meteohub,2013-01-27 00:35:00,
2013-01-26 18:40:00,50.5,27.7,30.10,SE,131,3.0,5.0,41,0.00,,,0.00,meteohub,2013-01-27 00:40:00,
2013-01-26 18:45:00,50.4,27.5,30.10,SE,128,3.0,5.0,41,0.00,,,0.00,meteohub,2013-01-27 00:45:00,
2013-01-26 18:50:00,50.4,27.5,30.10,SSE,159,3.0,6.0,41,0.00,,,0.00,meteohub,2013-01-27 00:50:00,
2013-01-26 18:55:00,50.2,27.3,30.10,SE,143,2.0,6.0,41,0.00,,,0.00,meteohub,2013-01-27 00:55:00,
2013-01-26 19:00:00,50.0,27.1,30.10,SE,142,4.0,6.0,41,0.00,,,0.00,meteohub,2013-01-27 01:00:00,
2013-01-26 19:05:00,49.8,27.1,30.10,SSE,155,3.0,6.0,41,0.00,,,0.00,meteohub,2013-01-27 01:05:00,
2013-01-26 19:10:00,49.8,27.7,30.10,SSE,148,2.0,6.0,42,0.00,,,0.00,meteohub,2013-01-27 01:10:00,
2013-01-26 19:15:00,49.8,27.7,30.11,SE,130,5.0,6.0,42,0.00,,,0.00,meteohub,2013-01-27 01:15:00,
2013-01-26 19:20:00,50.0,27.9,30.11,SE,138,4.0,7.0,42,0.00,,,0.00,meteohub,2013-01-27 01:20:00,
2013-01-26 19:25:00,50.0,27.9,30.11,SE,134,2.0,7.0,42,0.00,,,0.00,meteohub,2013-01-27 01:25:00,
2013-01-26 19:30:00,50.0,27.9,30.11,SE,129,3.0,7.0,42,0.00,,,0.00,meteohub,2013-01-27 01:30:00,
2013-01-26 19:35:00,50.0,27.9,30.10,SSE,153,4.0,7.0,42,0.00,,,0.00,meteohub,2013-01-27 01:35:00,
2013-01-26 19:40:00,49.8,27.7,30.10,SE,139,3.0,7.0,42,0.00,,,0.00,meteohub,2013-01-27 01:40:00,
2013-01-26 19:45:00,49.8,27.7,30.10,SE,125,3.0,7.0,42,0.00,,,0.00,meteohub,2013-01-27 01:45:00,
2013-01-26 19:50:00,49.6,27.5,30.10,SE,134,4.0,7.0,42,0.00,,,0.00,meteohub,2013-01-27 01:50:00,
2013-01-26 19:55:00,49.6,28.0,30.10,SE,134,3.0,7.0,43,0.00,,,0.00,meteohub,2013-01-27 01:55:00,
2013-01-26 20:00:00,49.5,27.9,30.09,ESE,120,4.0,8.0,43,0.00,,,0.00,meteohub,2013-01-27 02:00:00,
2013-01-26 20:05:00,49.3,27.7,30.10,ESE,103,1.0,8.0,43,0.00,,,0.00,meteohub,2013-01-27 02:05:00,
2013-01-26 20:10:00,48.7,27.9,30.10,ESE,112,3.0,8.0,44,0.00,,,0.00,meteohub,2013-01-27 02:10:00,
2013-01-26 20:15:00,48.4,27.5,30.09,SE,141,1.0,8.0,44,0.00,,,0.00,meteohub,2013-01-27 02:15:00,
2013-01-26 20:20:00,47.8,27.5,30.09,SE,127,3.0,6.0,45,0.00,,,0.00,meteohub,2013-01-27 02:20:00,
2013-01-26 20:25:00,47.7,27.3,30.09,SE,134,4.0,6.0,45,0.00,,,0.00,meteohub,2013-01-27 02:25:00,
2013-01-26 20:30:00,47.7,27.3,30.09,ESE,121,3.0,6.0,45,0.00,,,0.00,meteohub,2013-01-27 02:30:00,
2013-01-26 20:35:00,47.5,27.1,30.09,SE,135,3.0,6.0,45,0.00,,,0.00,meteohub,2013-01-27 02:35:00,
2013-01-26 20:40:00,47.3,27.5,30.09,SE,124,3.0,8.0,46,0.00,,,0.00,meteohub,2013-01-27 02:40:00,
2013-01-26 20:45:00,47.1,27.3,30.09,SE,140,2.0,8.0,46,0.00,,,0.00,meteohub,2013-01-27 02:45:00,
2013-01-26 20:50:00,46.9,27.3,30.09,ESE,106,2.0,8.0,46,0.00,,,0.00,meteohub,2013-01-27 02:50:00,
2013-01-26 20:55:00,46.6,27.5,30.09,East,98,2.0,5.0,47,0.00,,,0.00,meteohub,2013-01-27 02:55:00,
2013-01-26 21:00:00,46.2,27.1,30.09,ESE,119,5.0,5.0,47,0.00,,,0.00,meteohub,2013-01-27 03:00:00,
2013-01-26 21:05:00,45.9,27.3,30.09,East,96,4.0,5.0,48,0.00,,,0.00,meteohub,2013-01-27 03:05:00,
2013-01-26 21:10:00,45.7,27.1,30.08,SE,134,3.0,5.0,48,0.00,,,0.00,meteohub,2013-01-27 03:10:00,
2013-01-26 21:15:00,45.5,27.5,30.08,ESE,120,3.0,5.0,49,0.00,,,0.00,meteohub,2013-01-27 03:15:00,
2013-01-26 21:20:00,45.3,27.3,30.08,SSE,153,4.0,9.0,49,0.00,,,0.00,meteohub,2013-01-27 03:20:00,
2013-01-26 21:25:00,45.3,27.3,30.08,SE,129,6.0,9.0,49,0.00,,,0.00,meteohub,2013-01-27 03:25:00,
2013-01-26 21:30:00,45.1,27.7,30.07,East,89,3.0,9.0,50,0.00,,,0.00,meteohub,2013-01-27 03:30:00,
2013-01-26 21:35:00,45.1,27.7,30.07,SE,132,3.0,9.0,50,0.00,,,0.00,meteohub,2013-01-27 03:35:00,
2013-01-26 21:40:00,45.0,27.5,30.07,SE,146,4.0,7.0,50,0.00,,,0.00,meteohub,2013-01-27 03:40:00,
2013-01-26 21:45:00,45.0,27.5,30.06,SE,132,2.0,7.0,50,0.00,,,0.00,meteohub,2013-01-27 03:45:00,
2013-01-26 21:50:00,44.8,27.7,30.07,SE,138,3.0,7.0,51,0.00,,,0.00,meteohub,2013-01-27 03:50:00,
2013-01-26 21:55:00,44.6,27.5,30.07,SE,144,2.0,6.0,51,0.00,,,0.00,meteohub,2013-01-27 03:55:00,
2013-01-26 22:00:00,44.6,27.5,30.07,SSE,163,2.0,6.0,51,0.00,,,0.00,meteohub,2013-01-27 04:00:00,
2013-01-26 22:05:00,44.6,27.5,30.07,SSE,150,3.0,6.0,51,0.00,,,0.00,meteohub,2013-01-27 04:05:00,
2013-01-26 22:10:00,44.8,27.7,30.07,ESE,122,4.0,6.0,51,0.00,,,0.00,meteohub,2013-01-27 04:10:00,
2013-01-26 22:15:00,44.8,27.7,30.06,SE,125,3.0,6.0,51,0.00,,,0.00,meteohub,2013-01-27 04:15:00,
2013-01-26 22:20:00,45.0,27.9,30.07,ESE,112,3.0,6.0,51,0.00,,,0.00,meteohub,2013-01-27 04:20:00,
2013-01-26 22:25:00,45.0,27.9,30.07,SSE,149,2.0,6.0,51,0.00,,,0.00,meteohub,2013-01-27 04:25:00,
2013-01-26 22:30:00,45.1,27.7,30.06,ESE,122,6.0,6.0,50,0.00,,,0.00,meteohub,2013-01-27 04:30:00,
2013-01-26 22:35:00,45.1,27.7,30.06,SE,140,2.0,6.0,50,0.00,,,0.00,meteohub,2013-01-27 04:35:00,
2013-01-26 22:40:00,45.1,27.7,30.06,ESE,121,3.0,7.0,50,0.00,,,0.00,meteohub,2013-01-27 04:40:00,
2013-01-26 22:45:00,45.3,27.9,30.06,SE,140,2.0,7.0,50,0.00,,,0.00,meteohub,2013-01-27 04:45:00,
2013-01-26 22:50:00,45.3,27.9,30.06,SSE,149,2.0,7.0,50,0.00,,,0.00,meteohub,2013-01-27 04:50:00,
2013-01-26 22:55:00,45.3,27.9,30.06,SSE,157,0.0,7.0,50,0.00,,,0.00,meteohub,2013-01-27 04:55:00,
2013-01-26 23:00:00,45.3,27.9,30.06,SE,130,2.0,5.0,50,0.00,,,0.00,meteohub,2013-01-27 05:00:00,
2013-01-26 23:01:00,45.3,27.9,30.06,ESE,119,3.0,5.0,50,0.00,,,0.00,meteohub,2013-01-27 05:01:00,
2013-01-26 23:04:00,45.7,28.0,30.06,SE,140,1.0,5.0,50,0.00,,,0.00,meteohub,2013-01-27 05:04:00,
2013-01-26 23:09:00,45.7,28.0,30.06,SE,136,1.0,5.0,50,0.00,,,0.00,meteohub,2013-01-27 05:09:00,
2013-01-26 23:14:00,45.9,27.9,30.06,SSE,156,1.0,5.0,49,0.00,,,0.00,meteohub,2013-01-27 05:14:00,
2013-01-26 23:19:00,46.0,27.9,30.06,ESE,116,2.0,4.0,49,0.00,,,0.00,meteohub,2013-01-27 05:19:00,
2013-01-26 23:24:00,46.4,28.2,30.06,SE,130,2.0,4.0,49,0.00,,,0.00,meteohub,2013-01-27 05:24:00,
2013-01-26 23:29:00,46.8,28.0,30.07,SSE,154,3.0,4.0,48,0.00,,,0.00,meteohub,2013-01-27 05:29:00,
2013-01-26 23:34:00,47.3,28.0,30.07,SE,144,4.0,4.0,47,0.00,,,0.00,meteohub,2013-01-27 05:34:00,
2013-01-26 23:39:00,47.7,28.4,30.07,SE,132,3.0,5.0,47,0.00,,,0.00,meteohub,2013-01-27 05:39:00,
2013-01-26 23:44:00,47.7,28.4,30.07,SSE,167,3.0,5.0,47,0.00,,,0.00,meteohub,2013-01-27 05:44:00,
2013-01-26 23:50:00,47.8,29.1,30.06,SSE,152,3.0,5.0,48,0.00,,,0.00,meteohub,2013-01-27 05:50:00,
2013-01-26 23:55:00,47.8,29.7,30.06,SE,146,5.0,5.0,49,0.00,,,0.00,meteohub,2013-01-27 05:55:00,